sensor_id;sensor_type;location;lat;lon;timestamp;pressure;altitude;pressure_sealevel;temperature;humidity
44988;BME280;35735;52.226;21.254;2023-05-03T00:01:25;100930.19;;;10.96;100.00
44988;BME280;35735;52.226;21.254;2023-05-03T00:06:26;100936.47;;;10.88;100.00
44988;BME280;35735;52.226;21.254;2023-05-03T00:11:26;100931.00;;;10.82;100.00
44988;BME280;35735;52.226;21.254;2023-05-03T00:16:27;100943.56;;;10.77;100.00
44988;BME280;35735;52.226;21.254;2023-05-03T00:21:27;100941.78;;;10.74;100.00
44988;BME280;35735;52.226;21.254;2023-05-03T00:26:28;100939.06;;;10.74;100.00
44988;BME280;35735;52.226;21.254;2023-05-03T00:31:28;100948.03;;;10.72;100.00
44988;BME280;35735;52.226;21.254;2023-05-03T00:36:29;100948.03;;;10.70;100.00
44988;BME280;35735;52.226;21.254;2023-05-03T00:41:30;100955.19;;;10.67;100.00
44988;BME280;35735;52.226;21.254;2023-05-03T00:46:30;100949.78;;;10.65;99.88
44988;BME280;35735;52.226;21.254;2023-05-03T00:51:31;100958.78;;;10.63;99.63
44988;BME280;35735;52.226;21.254;2023-05-03T00:56:32;100956.97;;;10.63;99.59
44988;BME280;35735;52.226;21.254;2023-05-03T01:01:33;100947.06;;;10.64;99.41
44988;BME280;35735;52.226;21.254;2023-05-03T01:06:39;100938.03;;;10.59;98.94
44988;BME280;35735;52.226;21.254;2023-05-03T01:17:11;100946.16;;;10.60;99.09
44988;BME280;35735;52.226;21.254;2023-05-03T01:22:26;100957.78;;;10.51;98.67
44988;BME280;35735;52.226;21.254;2023-05-03T01:27:32;100954.09;;;10.43;99.16
44988;BME280;35735;52.226;21.254;2023-05-03T01:32:55;100967.56;;;10.38;99.42
44988;BME280;35735;52.226;21.254;2023-05-03T01:38:14;100973.84;;;10.36;99.33
44988;BME280;35735;52.226;21.254;2023-05-03T01:43:17;100980.88;;;10.25;99.45
44988;BME280;35735;52.226;21.254;2023-05-03T01:48:19;100984.44;;;10.19;99.61
44988;BME280;35735;52.226;21.254;2023-05-03T01:53:19;100986.16;;;10.15;99.71
44988;BME280;35735;52.226;21.254;2023-05-03T01:58:20;100987.94;;;10.12;99.75
44988;BME280;35735;52.226;21.254;2023-05-03T02:03:20;100991.47;;;10.06;99.88
44988;BME280;35735;52.226;21.254;2023-05-03T02:08:21;100997.69;;;10.00;100.00
44988;BME280;35735;52.226;21.254;2023-05-03T02:13:21;100993.13;;;9.95;100.00
44988;BME280;35735;52.226;21.254;2023-05-03T02:18:22;100993.09;;;9.92;100.00
44988;BME280;35735;52.226;21.254;2023-05-03T02:23:23;100988.56;;;9.88;100.00
44988;BME280;35735;52.226;21.254;2023-05-03T02:28:23;101002.87;;;9.83;99.83
44988;BME280;35735;52.226;21.254;2023-05-03T02:33:24;100996.47;;;9.74;99.96
44988;BME280;35735;52.226;21.254;2023-05-03T02:38:24;100999.09;;;9.66;99.89
44988;BME280;35735;52.226;21.254;2023-05-03T02:43:25;100992.78;;;9.64;99.80
44988;BME280;35735;52.226;21.254;2023-05-03T02:48:25;100992.72;;;9.61;99.76
44988;BME280;35735;52.226;21.254;2023-05-03T02:53:26;101003.41;;;9.55;99.78
44988;BME280;35735;52.226;21.254;2023-05-03T02:58:26;101020.44;;;9.49;99.96
44988;BME280;35735;52.226;21.254;2023-05-03T03:03:27;101022.94;;;9.38;100.00
44988;BME280;35735;52.226;21.254;2023-05-03T03:08:27;101028.22;;;9.29;99.98
44988;BME280;35735;52.226;21.254;2023-05-03T03:13:28;101038.84;;;9.20;100.00
44988;BME280;35735;52.226;21.254;2023-05-03T03:18:29;101039.78;;;9.23;100.00
44988;BME280;35735;52.226;21.254;2023-05-03T03:23:29;101031.78;;;9.28;100.00
44988;BME280;35735;52.226;21.254;2023-05-03T03:28:30;101045.12;;;9.20;100.00
44988;BME280;35735;52.226;21.254;2023-05-03T03:33:30;101041.59;;;9.23;100.00
44988;BME280;35735;52.226;21.254;2023-05-03T03:38:31;101035.34;;;9.24;100.00
44988;BME280;35735;52.226;21.254;2023-05-03T03:43:32;101041.59;;;9.24;100.00
44988;BME280;35735;52.226;21.254;2023-05-03T03:48:32;101034.44;;;9.25;100.00
44988;BME280;35735;52.226;21.254;2023-05-03T03:53:33;101034.47;;;9.28;100.00
44988;BME280;35735;52.226;21.254;2023-05-03T03:58:33;101036.31;;;9.29;100.00
44988;BME280;35735;52.226;21.254;2023-05-03T04:03:34;101045.31;;;9.31;100.00
44988;BME280;35735;52.226;21.254;2023-05-03T04:08:34;101062.34;;;9.30;100.00
44988;BME280;35735;52.226;21.254;2023-05-03T04:13:35;101082.09;;;9.29;100.00
44988;BME280;35735;52.226;21.254;2023-05-03T04:18:35;101074.88;;;9.28;100.00
44988;BME280;35735;52.226;21.254;2023-05-03T04:23:36;101081.94;;;9.20;99.66
44988;BME280;35735;52.226;21.254;2023-05-03T04:28:36;101083.59;;;9.12;99.81
44988;BME280;35735;52.226;21.254;2023-05-03T04:33:37;101088.97;;;9.12;99.78
44988;BME280;35735;52.226;21.254;2023-05-03T04:38:37;101099.69;;;9.05;99.64
44988;BME280;35735;52.226;21.254;2023-05-03T04:43:38;101102.41;;;9.10;99.72
44988;BME280;35735;52.226;21.254;2023-05-03T04:48:38;101101.72;;;9.22;99.63
44988;BME280;35735;52.226;21.254;2023-05-03T04:53:39;101114.50;;;9.35;99.15
44988;BME280;35735;52.226;21.254;2023-05-03T04:58:40;101122.81;;;9.48;98.46
44988;BME280;35735;52.226;21.254;2023-05-03T05:03:40;101121.19;;;9.60;97.99
44988;BME280;35735;52.226;21.254;2023-05-03T05:08:41;101126.91;;;9.83;97.77
44988;BME280;35735;52.226;21.254;2023-05-03T05:13:41;101129.13;;;10.15;97.20
44988;BME280;35735;52.226;21.254;2023-05-03T05:18:42;101132.25;;;10.45;96.34
44988;BME280;35735;52.226;21.254;2023-05-03T05:23:42;101126.19;;;10.67;95.39
44988;BME280;35735;52.226;21.254;2023-05-03T05:28:43;101141.84;;;10.98;94.29
44988;BME280;35735;52.226;21.254;2023-05-03T05:33:43;101141.22;;;11.31;93.60
44988;BME280;35735;52.226;21.254;2023-05-03T05:38:44;101151.44;;;11.71;92.26
44988;BME280;35735;52.226;21.254;2023-05-03T05:43:44;101139.06;;;12.03;90.83
44988;BME280;35735;52.226;21.254;2023-05-03T05:48:45;101146.41;;;12.35;89.04
44988;BME280;35735;52.226;21.254;2023-05-03T05:53:46;101155.59;;;12.71;88.58
44988;BME280;35735;52.226;21.254;2023-05-03T05:58:46;101157.44;;;12.97;86.72
44988;BME280;35735;52.226;21.254;2023-05-03T06:03:47;101162.87;;;13.28;85.10
44988;BME280;35735;52.226;21.254;2023-05-03T06:08:47;101166.53;;;13.58;83.95
44988;BME280;35735;52.226;21.254;2023-05-03T06:13:48;101175.56;;;13.95;81.95
44988;BME280;35735;52.226;21.254;2023-05-03T06:18:49;101179.16;;;13.99;78.63
44988;BME280;35735;52.226;21.254;2023-05-03T06:23:49;101177.34;;;14.07;76.37
44988;BME280;35735;52.226;21.254;2023-05-03T06:28:50;101185.44;;;14.29;74.44
44988;BME280;35735;52.226;21.254;2023-05-03T06:33:50;101189.84;;;14.54;73.21
44988;BME280;35735;52.226;21.254;2023-05-03T06:38:51;101188.97;;;14.55;70.68
44988;BME280;35735;52.226;21.254;2023-05-03T06:43:52;101192.59;;;14.62;68.80
44988;BME280;35735;52.226;21.254;2023-05-03T06:48:52;101198.00;;;14.63;66.04
44988;BME280;35735;52.226;21.254;2023-05-03T06:53:53;101199.81;;;14.64;67.87
44988;BME280;35735;52.226;21.254;2023-05-03T06:58:54;101199.75;;;14.78;66.62
44988;BME280;35735;52.226;21.254;2023-05-03T07:03:54;101194.22;;;14.97;66.43
44988;BME280;35735;52.226;21.254;2023-05-03T07:08:55;101196.75;;;15.23;67.25
44988;BME280;35735;52.226;21.254;2023-05-03T07:13:55;101200.13;;;15.57;66.50
44988;BME280;35735;52.226;21.254;2023-05-03T07:18:56;101205.44;;;15.78;64.54
44988;BME280;35735;52.226;21.254;2023-05-03T07:23:56;101202.47;;;16.02;64.69
44988;BME280;35735;52.226;21.254;2023-05-03T07:28:57;101203.22;;;16.17;62.53
44988;BME280;35735;52.226;21.254;2023-05-03T07:33:57;101216.03;;;16.05;60.39
44988;BME280;35735;52.226;21.254;2023-05-03T07:38:58;101210.56;;;16.08;60.36
44988;BME280;35735;52.226;21.254;2023-05-03T07:43:59;101220.72;;;15.92;59.00
44988;BME280;35735;52.226;21.254;2023-05-03T07:49:03;101220.00;;;15.67;59.70
44988;BME280;35735;52.226;21.254;2023-05-03T07:54:04;101217.19;;;15.83;61.03
44988;BME280;35735;52.226;21.254;2023-05-03T07:59:05;101215.19;;;16.00;58.41
44988;BME280;35735;52.226;21.254;2023-05-03T08:04:06;101214.41;;;15.89;59.41
44988;BME280;35735;52.226;21.254;2023-05-03T08:09:06;101219.69;;;16.07;58.07
44988;BME280;35735;52.226;21.254;2023-05-03T08:14:07;101214.31;;;15.98;57.11
44988;BME280;35735;52.226;21.254;2023-05-03T08:19:07;101207.28;;;15.76;58.02
44988;BME280;35735;52.226;21.254;2023-05-03T08:24:08;101214.53;;;15.72;58.58
44988;BME280;35735;52.226;21.254;2023-05-03T08:29:09;101212.63;;;15.82;59.10
44988;BME280;35735;52.226;21.254;2023-05-03T08:34:09;101217.19;;;15.80;58.21
44988;BME280;35735;52.226;21.254;2023-05-03T08:39:10;101220.81;;;15.80;57.58
44988;BME280;35735;52.226;21.254;2023-05-03T08:44:11;101208.91;;;15.93;57.92
44988;BME280;35735;52.226;21.254;2023-05-03T08:49:12;101226.87;;;16.11;55.02
44988;BME280;35735;52.226;21.254;2023-05-03T08:54:16;101221.34;;;16.21;56.77
44988;BME280;35735;52.226;21.254;2023-05-03T08:59:16;101217.56;;;16.34;54.97
44988;BME280;35735;52.226;21.254;2023-05-03T09:04:17;101210.34;;;16.28;54.51
44988;BME280;35735;52.226;21.254;2023-05-03T09:09:30;101216.66;;;16.34;56.74
44988;BME280;35735;52.226;21.254;2023-05-03T09:14:40;101218.00;;;16.73;54.44
44988;BME280;35735;52.226;21.254;2023-05-03T09:19:55;101225.19;;;16.80;49.78
44988;BME280;35735;52.226;21.254;2023-05-03T09:24:58;101219.06;;;16.63;50.94
44988;BME280;35735;52.226;21.254;2023-05-03T09:30:16;101211.06;;;16.47;50.18
44988;BME280;35735;52.226;21.254;2023-05-03T09:35:17;101213.47;;;16.72;53.36
44988;BME280;35735;52.226;21.254;2023-05-03T09:40:17;101212.09;;;17.09;51.38
44988;BME280;35735;52.226;21.254;2023-05-03T09:45:22;101216.28;;;17.36;51.87
44988;BME280;35735;52.226;21.254;2023-05-03T09:50:23;101213.28;;;17.51;50.53
44988;BME280;35735;52.226;21.254;2023-05-03T09:55:24;101210.91;;;17.30;51.19
44988;BME280;35735;52.226;21.254;2023-05-03T10:00:24;101220.31;;;17.07;51.76
44988;BME280;35735;52.226;21.254;2023-05-03T10:05:29;101223.13;;;17.01;51.40
44988;BME280;35735;52.226;21.254;2023-05-03T10:10:31;101217.72;;;16.98;49.76
44988;BME280;35735;52.226;21.254;2023-05-03T10:15:34;101219.94;;;16.65;51.73
44988;BME280;35735;52.226;21.254;2023-05-03T10:20:39;101217.78;;;16.93;52.04
44988;BME280;35735;52.226;21.254;2023-05-03T10:31:45;101221.84;;;17.27;48.96
44988;BME280;35735;52.226;21.254;2023-05-03T10:36:47;101219.44;;;17.05;50.88
44988;BME280;35735;52.226;21.254;2023-05-03T10:41:58;101222.66;;;17.33;51.25
44988;BME280;35735;52.226;21.254;2023-05-03T10:47:13;101222.84;;;17.22;46.90
44988;BME280;35735;52.226;21.254;2023-05-03T10:57:38;101218.53;;;17.06;50.30
44988;BME280;35735;52.226;21.254;2023-05-03T11:08:16;101219.66;;;17.50;49.73
44988;BME280;35735;52.226;21.254;2023-05-03T11:13:20;101217.53;;;17.71;46.71
44988;BME280;35735;52.226;21.254;2023-05-03T11:18:21;101218.06;;;17.37;46.97
44988;BME280;35735;52.226;21.254;2023-05-03T11:23:27;101223.91;;;17.11;47.24
44988;BME280;35735;52.226;21.254;2023-05-03T11:28:27;101235.16;;;16.81;47.61
44988;BME280;35735;52.226;21.254;2023-05-03T11:33:28;101232.75;;;16.57;48.50
44988;BME280;35735;52.226;21.254;2023-05-03T11:38:32;101231.62;;;16.75;49.07
44988;BME280;35735;52.226;21.254;2023-05-03T11:43:39;101224.25;;;16.81;49.71
44988;BME280;35735;52.226;21.254;2023-05-03T11:48:43;101235.09;;;16.91;48.51
44988;BME280;35735;52.226;21.254;2023-05-03T11:53:43;101234.91;;;17.04;48.00
44988;BME280;35735;52.226;21.254;2023-05-03T12:04:02;101234.00;;;17.04;48.79
44988;BME280;35735;52.226;21.254;2023-05-03T12:09:11;101234.41;;;16.68;48.85
44988;BME280;35735;52.226;21.254;2023-05-03T12:14:12;101241.03;;;16.47;48.74
44988;BME280;35735;52.226;21.254;2023-05-03T12:19:22;101241.38;;;16.14;48.63
44988;BME280;35735;52.226;21.254;2023-05-03T12:24:26;101229.59;;;16.11;51.01
44988;BME280;35735;52.226;21.254;2023-05-03T12:29:27;101239.44;;;16.28;49.27
44988;BME280;35735;52.226;21.254;2023-05-03T12:34:27;101231.31;;;16.22;48.37
44988;BME280;35735;52.226;21.254;2023-05-03T12:39:28;101228.91;;;15.91;49.64
44988;BME280;35735;52.226;21.254;2023-05-03T12:44:28;101221.59;;;15.95;51.16
44988;BME280;35735;52.226;21.254;2023-05-03T12:49:29;101223.41;;;15.97;50.13
44988;BME280;35735;52.226;21.254;2023-05-03T12:54:29;101224.31;;;15.96;49.75
44988;BME280;35735;52.226;21.254;2023-05-03T12:59:30;101216.31;;;15.78;48.84
44988;BME280;35735;52.226;21.254;2023-05-03T13:04:31;101211.88;;;15.61;50.01
44988;BME280;35735;52.226;21.254;2023-05-03T13:09:32;101223.75;;;15.51;50.56
44988;BME280;35735;52.226;21.254;2023-05-03T13:14:32;101214.59;;;15.61;50.77
44988;BME280;35735;52.226;21.254;2023-05-03T13:19:33;101212.00;;;15.50;49.55
44988;BME280;35735;52.226;21.254;2023-05-03T13:24:33;101219.34;;;15.33;49.57
44988;BME280;35735;52.226;21.254;2023-05-03T13:29:34;101211.31;;;15.16;49.84
44988;BME280;35735;52.226;21.254;2023-05-03T13:34:35;101198.69;;;15.09;50.24
44988;BME280;35735;52.226;21.254;2023-05-03T13:39:35;101196.88;;;15.01;49.69
44988;BME280;35735;52.226;21.254;2023-05-03T13:44:36;101200.56;;;14.97;50.45
44988;BME280;35735;52.226;21.254;2023-05-03T13:49:36;101190.56;;;14.99;51.62
44988;BME280;35735;52.226;21.254;2023-05-03T13:54:37;101192.38;;;15.00;51.29
44988;BME280;35735;52.226;21.254;2023-05-03T13:59:38;101194.16;;;15.00;50.80
44988;BME280;35735;52.226;21.254;2023-05-03T14:04:38;101196.03;;;14.95;50.34
44988;BME280;35735;52.226;21.254;2023-05-03T14:09:39;101189.69;;;14.91;50.77
44988;BME280;35735;52.226;21.254;2023-05-03T14:14:39;101183.34;;;14.95;51.54
44988;BME280;35735;52.226;21.254;2023-05-03T14:19:40;101186.94;;;15.02;50.64
44988;BME280;35735;52.226;21.254;2023-05-03T14:24:40;101191.50;;;14.98;50.73
44988;BME280;35735;52.226;21.254;2023-05-03T14:29:41;101194.25;;;14.89;50.85
44988;BME280;35735;52.226;21.254;2023-05-03T14:34:42;101190.63;;;14.89;51.24
44988;BME280;35735;52.226;21.254;2023-05-03T14:39:43;101187.94;;;14.87;51.50
44988;BME280;35735;52.226;21.254;2023-05-03T14:44:43;101194.25;;;14.91;51.71
44988;BME280;35735;52.226;21.254;2023-05-03T14:49:44;101188.84;;;14.85;51.65
44988;BME280;35735;52.226;21.254;2023-05-03T14:54:44;101189.75;;;14.85;52.29
44988;BME280;35735;52.226;21.254;2023-05-03T14:59:45;101198.81;;;14.86;51.95
44988;BME280;35735;52.226;21.254;2023-05-03T15:04:45;101196.09;;;14.86;52.01
44988;BME280;35735;52.226;21.254;2023-05-03T15:09:46;101196.97;;;14.92;52.25
44988;BME280;35735;52.226;21.254;2023-05-03T15:14:46;101187.88;;;14.93;51.18
44988;BME280;35735;52.226;21.254;2023-05-03T15:19:47;101191.53;;;14.92;51.12
44988;BME280;35735;52.226;21.254;2023-05-03T15:24:48;101186.06;;;14.97;50.76
44988;BME280;35735;52.226;21.254;2023-05-03T15:29:48;101195.09;;;15.00;50.34
44988;BME280;35735;52.226;21.254;2023-05-03T15:34:49;101194.16;;;15.05;49.85
44988;BME280;35735;52.226;21.254;2023-05-03T15:39:49;101195.00;;;15.13;49.49
44988;BME280;35735;52.226;21.254;2023-05-03T15:44:50;101198.66;;;15.12;49.36
44988;BME280;35735;52.226;21.254;2023-05-03T15:49:50;101197.75;;;15.10;49.22
44988;BME280;35735;52.226;21.254;2023-05-03T15:54:51;101204.09;;;15.12;48.83
44988;BME280;35735;52.226;21.254;2023-05-03T15:59:52;101202.31;;;15.05;48.48
44988;BME280;35735;52.226;21.254;2023-05-03T16:04:52;101209.59;;;14.96;48.29
44988;BME280;35735;52.226;21.254;2023-05-03T16:09:53;101196.09;;;14.86;48.53
44988;BME280;35735;52.226;21.254;2023-05-03T16:14:53;101197.94;;;14.77;48.61
44988;BME280;35735;52.226;21.254;2023-05-03T16:19:54;101198.88;;;14.69;48.62
44988;BME280;35735;52.226;21.254;2023-05-03T16:24:54;101200.75;;;14.60;48.66
44988;BME280;35735;52.226;21.254;2023-05-03T16:29:56;101201.59;;;14.58;48.33
44988;BME280;35735;52.226;21.254;2023-05-03T16:34:57;101200.78;;;14.45;48.08
44988;BME280;35735;52.226;21.254;2023-05-03T16:39:58;101211.59;;;14.50;49.00
44988;BME280;35735;52.226;21.254;2023-05-03T16:44:59;101215.19;;;14.53;49.47
44988;BME280;35735;52.226;21.254;2023-05-03T16:50:00;101209.81;;;14.50;49.44
44988;BME280;35735;52.226;21.254;2023-05-03T16:55:00;101215.25;;;14.44;49.12
44988;BME280;35735;52.226;21.254;2023-05-03T17:00:02;101213.47;;;14.38;49.45
44988;BME280;35735;52.226;21.254;2023-05-03T17:05:06;101213.47;;;14.24;49.26
44988;BME280;35735;52.226;21.254;2023-05-03T17:10:07;101219.84;;;14.19;49.78
44988;BME280;35735;52.226;21.254;2023-05-03T17:15:08;101216.25;;;14.14;50.17
44988;BME280;35735;52.226;21.254;2023-05-03T17:20:10;101223.50;;;14.12;50.34
44988;BME280;35735;52.226;21.254;2023-05-03T17:25:11;101226.22;;;14.07;51.28
44988;BME280;35735;52.226;21.254;2023-05-03T17:30:11;101231.62;;;14.05;52.15
44988;BME280;35735;52.226;21.254;2023-05-03T17:35:12;101229.81;;;14.12;52.73
44988;BME280;35735;52.226;21.254;2023-05-03T17:40:13;101235.25;;;14.06;53.76
44988;BME280;35735;52.226;21.254;2023-05-03T17:45:13;101228.00;;;13.89;56.14
44988;BME280;35735;52.226;21.254;2023-05-03T17:50:14;101234.38;;;13.82;58.46
44988;BME280;35735;52.226;21.254;2023-05-03T17:55:15;101236.16;;;13.57;60.72
44988;BME280;35735;52.226;21.254;2023-05-03T18:00:15;101235.19;;;13.29;61.90
44988;BME280;35735;52.226;21.254;2023-05-03T18:05:16;101245.03;;;12.96;63.50
44988;BME280;35735;52.226;21.254;2023-05-03T18:10:17;101245.84;;;12.67;64.95
44988;BME280;35735;52.226;21.254;2023-05-03T18:15:18;101250.28;;;12.48;66.28
44988;BME280;35735;52.226;21.254;2023-05-03T18:20:18;101259.25;;;12.36;67.25
44988;BME280;35735;52.226;21.254;2023-05-03T18:25:19;101261.75;;;12.09;68.33
44988;BME280;35735;52.226;21.254;2023-05-03T18:30:19;101263.38;;;11.88;69.31
44988;BME280;35735;52.226;21.254;2023-05-03T18:35:20;101273.91;;;11.57;70.70
44988;BME280;35735;52.226;21.254;2023-05-03T18:40:21;101264.75;;;11.41;71.23
44988;BME280;35735;52.226;21.254;2023-05-03T18:45:22;101266.25;;;11.13;72.01
44988;BME280;35735;52.226;21.254;2023-05-03T18:50:22;101267.56;;;10.74;73.11
44988;BME280;35735;52.226;21.254;2023-05-03T18:55:23;101270.00;;;10.51;74.06
44988;BME280;35735;52.226;21.254;2023-05-03T19:00:24;101276.78;;;10.27;74.64
44988;BME280;35735;52.226;21.254;2023-05-03T19:05:24;101270.28;;;10.11;75.32
44988;BME280;35735;52.226;21.254;2023-05-03T19:10:25;101277.06;;;9.86;76.04
44988;BME280;35735;52.226;21.254;2023-05-03T19:15:25;101264.19;;;9.68;77.18
44988;BME280;35735;52.226;21.254;2023-05-03T19:20:26;101269.31;;;9.53;77.73
44988;BME280;35735;52.226;21.254;2023-05-03T19:25:26;101267.91;;;9.24;78.46
44988;BME280;35735;52.226;21.254;2023-05-03T19:30:27;101277.37;;;9.04;79.10
44988;BME280;35735;52.226;21.254;2023-05-03T19:35:28;101288.66;;;8.84;79.96
44988;BME280;35735;52.226;21.254;2023-05-03T19:40:28;101281.84;;;8.59;80.58
44988;BME280;35735;52.226;21.254;2023-05-03T19:45:29;101284.28;;;8.48;81.33
44988;BME280;35735;52.226;21.254;2023-05-03T19:50:29;101283.81;;;8.30;82.17
44988;BME280;35735;52.226;21.254;2023-05-03T19:55:30;101286.19;;;8.16;83.02
44988;BME280;35735;52.226;21.254;2023-05-03T20:00:30;101283.41;;;8.11;83.45
44988;BME280;35735;52.226;21.254;2023-05-03T20:05:31;101290.16;;;7.94;83.76
44988;BME280;35735;52.226;21.254;2023-05-03T20:10:31;101292.25;;;7.71;84.32
44988;BME280;35735;52.226;21.254;2023-05-03T20:15:34;101287.66;;;7.65;84.95
44988;BME280;35735;52.226;21.254;2023-05-03T20:20:35;101293.38;;;7.44;85.65
44988;BME280;35735;52.226;21.254;2023-05-03T20:25:35;101283.16;;;7.31;86.36
44988;BME280;35735;52.226;21.254;2023-05-03T20:30:36;101292.78;;;7.22;86.62
44988;BME280;35735;52.226;21.254;2023-05-03T20:35:36;101293.69;;;7.23;86.63
44988;BME280;35735;52.226;21.254;2023-05-03T20:40:37;101299.78;;;7.17;86.49
44988;BME280;35735;52.226;21.254;2023-05-03T20:45:37;101291.41;;;7.05;86.59
44988;BME280;35735;52.226;21.254;2023-05-03T20:50:38;101298.06;;;6.87;87.09
44988;BME280;35735;52.226;21.254;2023-05-03T20:55:38;101299.34;;;6.70;87.91
44988;BME280;35735;52.226;21.254;2023-05-03T21:00:39;101305.88;;;6.49;88.30
44988;BME280;35735;52.226;21.254;2023-05-03T21:05:39;101300.97;;;6.36;89.02
44988;BME280;35735;52.226;21.254;2023-05-03T21:10:40;101302.09;;;6.43;89.35
44988;BME280;35735;52.226;21.254;2023-05-03T21:15:41;101294.72;;;6.36;89.27
44988;BME280;35735;52.226;21.254;2023-05-03T21:20:41;101297.03;;;6.23;89.71
44988;BME280;35735;52.226;21.254;2023-05-03T21:25:42;101289.31;;;6.05;90.19
44988;BME280;35735;52.226;21.254;2023-05-03T21:30:42;101293.31;;;5.92;90.70
44988;BME280;35735;52.226;21.254;2023-05-03T21:35:43;101287.78;;;5.88;91.00
44988;BME280;35735;52.226;21.254;2023-05-03T21:40:43;101276.84;;;5.80;91.36
44988;BME280;35735;52.226;21.254;2023-05-03T21:45:44;101280.03;;;5.68;91.83
44988;BME280;35735;52.226;21.254;2023-05-03T21:50:44;101278.84;;;5.60;92.17
44988;BME280;35735;52.226;21.254;2023-05-03T21:55:45;101281.31;;;5.54;92.62
44988;BME280;35735;52.226;21.254;2023-05-03T22:00:46;101282.91;;;5.49;93.01
44988;BME280;35735;52.226;21.254;2023-05-03T22:05:46;101289.03;;;5.45;93.22
44988;BME280;35735;52.226;21.254;2023-05-03T22:10:47;101286.16;;;5.38;93.23
44988;BME280;35735;52.226;21.254;2023-05-03T22:15:48;101292.78;;;5.24;93.49
44988;BME280;35735;52.226;21.254;2023-05-03T22:20:48;101288.75;;;5.11;94.10
44988;BME280;35735;52.226;21.254;2023-05-03T22:25:49;101295.59;;;5.03;94.50
44988;BME280;35735;52.226;21.254;2023-05-03T22:30:49;101288.69;;;4.86;94.64
44988;BME280;35735;52.226;21.254;2023-05-03T22:35:50;101294.81;;;4.81;94.94
44988;BME280;35735;52.226;21.254;2023-05-03T22:40:51;101296.47;;;4.78;95.11
44988;BME280;35735;52.226;21.254;2023-05-03T22:45:51;101294.75;;;4.80;95.18
44988;BME280;35735;52.226;21.254;2023-05-03T22:50:52;101302.66;;;4.77;95.44
44988;BME280;35735;52.226;21.254;2023-05-03T22:55:59;101309.22;;;4.62;95.74
44988;BME280;35735;52.226;21.254;2023-05-03T23:01:01;101304.63;;;4.58;96.34
44988;BME280;35735;52.226;21.254;2023-05-03T23:06:02;101301.84;;;4.55;96.55
44988;BME280;35735;52.226;21.254;2023-05-03T23:11:02;101297.94;;;4.47;96.63
44988;BME280;35735;52.226;21.254;2023-05-03T23:16:03;101300.88;;;4.31;97.02
44988;BME280;35735;52.226;21.254;2023-05-03T23:21:04;101303.25;;;4.23;97.23
44988;BME280;35735;52.226;21.254;2023-05-03T23:26:05;101295.06;;;4.18;97.40
44988;BME280;35735;52.226;21.254;2023-05-03T23:31:05;101294.56;;;4.06;97.75
44988;BME280;35735;52.226;21.254;2023-05-03T23:36:06;101298.44;;;4.14;98.00
44988;BME280;35735;52.226;21.254;2023-05-03T23:41:07;101296.38;;;4.07;97.97
44988;BME280;35735;52.226;21.254;2023-05-03T23:46:07;101284.28;;;3.94;98.02
44988;BME280;35735;52.226;21.254;2023-05-03T23:51:08;101289.94;;;3.79;98.40
44988;BME280;35735;52.226;21.254;2023-05-03T23:56:08;101278.84;;;3.70;98.65
